Terminal Aerodrome Forecast
Issued by NWS

Home | Current Version | Previous Version | Text Only | Print | Product List | Glossary On
Versions: 1 2 3 4 5 6 7 8 9 10 11 12 13 14 15 16 17 18 19
000
FTUS43 KJKL 221432 AAB
TAFSJS
TAF AMD
KSJS 221432Z 2215/2312 VRB03KT P6SM BKN015
     FM221530 32005KT P6SM BKN035
     FM221900 30004KT P6SM SCT200
     FM231000 00000KT P6SM BKN050=

USA.gov is the U.S. government's official web portal to all federal, state and local government web resources and services.